sensor_id;sensor_type;location;lat;lon;timestamp;P1;durP1;ratioP1;P2;durP2;ratioP2
16115;SDS011;8162;47.104;15.432;2023-05-10T00:00:27;5.03;;;3.37;;
16115;SDS011;8162;47.104;15.432;2023-05-10T00:03:28;4.70;;;3.30;;
16115;SDS011;8162;47.104;15.432;2023-05-10T00:06:29;6.20;;;4.30;;
16115;SDS011;8162;47.104;15.432;2023-05-10T00:09:31;4.67;;;3.40;;
16115;SDS011;8162;47.104;15.432;2023-05-10T00:12:32;6.43;;;3.87;;
16115;SDS011;8162;47.104;15.432;2023-05-10T00:15:33;4.77;;;3.87;;
16115;SDS011;8162;47.104;15.432;2023-05-10T00:18:34;6.33;;;4.03;;
16115;SDS011;8162;47.104;15.432;2023-05-10T00:21:36;8.53;;;4.27;;
16115;SDS011;8162;47.104;15.432;2023-05-10T00:24:37;5.80;;;4.03;;
16115;SDS011;8162;47.104;15.432;2023-05-10T00:27:38;6.40;;;4.43;;
16115;SDS011;8162;47.104;15.432;2023-05-10T00:30:39;4.47;;;3.87;;
16115;SDS011;8162;47.104;15.432;2023-05-10T00:33:40;3.77;;;3.47;;
16115;SDS011;8162;47.104;15.432;2023-05-10T00:36:41;4.87;;;3.33;;
16115;SDS011;8162;47.104;15.432;2023-05-10T00:39:42;5.53;;;4.50;;
16115;SDS011;8162;47.104;15.432;2023-05-10T00:42:43;5.50;;;3.80;;
16115;SDS011;8162;47.104;15.432;2023-05-10T00:45:44;4.20;;;3.77;;
16115;SDS011;8162;47.104;15.432;2023-05-10T00:48:45;8.13;;;4.73;;
16115;SDS011;8162;47.104;15.432;2023-05-10T00:51:46;5.70;;;3.97;;
16115;SDS011;8162;47.104;15.432;2023-05-10T00:54:47;7.03;;;4.60;;
16115;SDS011;8162;47.104;15.432;2023-05-10T00:57:48;4.57;;;3.90;;
16115;SDS011;8162;47.104;15.432;2023-05-10T01:00:50;7.43;;;4.53;;
16115;SDS011;8162;47.104;15.432;2023-05-10T01:03:51;5.23;;;4.50;;
16115;SDS011;8162;47.104;15.432;2023-05-10T01:06:52;4.97;;;4.10;;
16115;SDS011;8162;47.104;15.432;2023-05-10T01:09:53;7.23;;;4.30;;
16115;SDS011;8162;47.104;15.432;2023-05-10T01:12:54;4.30;;;3.90;;
16115;SDS011;8162;47.104;15.432;2023-05-10T01:15:56;6.37;;;5.17;;
16115;SDS011;8162;47.104;15.432;2023-05-10T01:18:57;5.43;;;4.93;;
16115;SDS011;8162;47.104;15.432;2023-05-10T01:22:19;4.40;;;4.00;;
16115;SDS011;8162;47.104;15.432;2023-05-10T01:28:58;4.90;;;4.20;;
16115;SDS011;8162;47.104;15.432;2023-05-10T01:32:24;6.83;;;4.43;;
16115;SDS011;8162;47.104;15.432;2023-05-10T01:35:46;4.70;;;4.30;;
16115;SDS011;8162;47.104;15.432;2023-05-10T01:38:53;5.60;;;5.10;;
16115;SDS011;8162;47.104;15.432;2023-05-10T01:42:03;6.33;;;4.50;;
16115;SDS011;8162;47.104;15.432;2023-05-10T01:48:20;4.60;;;4.20;;
16115;SDS011;8162;47.104;15.432;2023-05-10T01:51:22;6.30;;;4.30;;
16115;SDS011;8162;47.104;15.432;2023-05-10T01:54:24;5.77;;;5.17;;
16115;SDS011;8162;47.104;15.432;2023-05-10T01:57:26;7.90;;;4.07;;
16115;SDS011;8162;47.104;15.432;2023-05-10T02:00:28;4.37;;;3.60;;
16115;SDS011;8162;47.104;15.432;2023-05-10T02:03:31;5.60;;;5.00;;
16115;SDS011;8162;47.104;15.432;2023-05-10T02:06:33;6.43;;;4.90;;
16115;SDS011;8162;47.104;15.432;2023-05-10T02:09:35;7.23;;;5.30;;
16115;SDS011;8162;47.104;15.432;2023-05-10T02:12:45;7.00;;;5.47;;
16115;SDS011;8162;47.104;15.432;2023-05-10T02:15:48;4.60;;;4.20;;
16115;SDS011;8162;47.104;15.432;2023-05-10T02:18:49;4.63;;;3.93;;
16115;SDS011;8162;47.104;15.432;2023-05-10T02:21:52;6.37;;;5.73;;
16115;SDS011;8162;47.104;15.432;2023-05-10T02:24:57;7.87;;;4.40;;
16115;SDS011;8162;47.104;15.432;2023-05-10T02:27:59;5.60;;;5.00;;
16115;SDS011;8162;47.104;15.432;2023-05-10T02:31:00;5.03;;;4.53;;
16115;SDS011;8162;47.104;15.432;2023-05-10T02:34:02;4.43;;;4.03;;
16115;SDS011;8162;47.104;15.432;2023-05-10T02:37:03;8.50;;;5.63;;
16115;SDS011;8162;47.104;15.432;2023-05-10T02:40:06;5.37;;;4.87;;
16115;SDS011;8162;47.104;15.432;2023-05-10T02:43:09;4.77;;;4.27;;
16115;SDS011;8162;47.104;15.432;2023-05-10T02:46:12;5.33;;;4.57;;
16115;SDS011;8162;47.104;15.432;2023-05-10T02:49:13;7.97;;;5.27;;
16115;SDS011;8162;47.104;15.432;2023-05-10T02:52:16;6.50;;;4.00;;
16115;SDS011;8162;47.104;15.432;2023-05-10T02:55:19;6.13;;;4.87;;
16115;SDS011;8162;47.104;15.432;2023-05-10T02:58:21;6.87;;;5.13;;
16115;SDS011;8162;47.104;15.432;2023-05-10T03:01:22;5.63;;;4.60;;
16115;SDS011;8162;47.104;15.432;2023-05-10T03:04:24;7.83;;;4.80;;
16115;SDS011;8162;47.104;15.432;2023-05-10T03:07:25;6.13;;;5.10;;
16115;SDS011;8162;47.104;15.432;2023-05-10T03:10:27;11.00;;;5.70;;
16115;SDS011;8162;47.104;15.432;2023-05-10T03:16:45;6.73;;;4.87;;
16115;SDS011;8162;47.104;15.432;2023-05-10T03:19:54;6.33;;;4.80;;
16115;SDS011;8162;47.104;15.432;2023-05-10T03:23:04;7.03;;;4.23;;
16115;SDS011;8162;47.104;15.432;2023-05-10T03:26:05;6.20;;;5.20;;
16115;SDS011;8162;47.104;15.432;2023-05-10T03:29:06;6.17;;;4.50;;
16115;SDS011;8162;47.104;15.432;2023-05-10T03:32:09;4.50;;;4.07;;
16115;SDS011;8162;47.104;15.432;2023-05-10T03:35:10;6.37;;;5.43;;
16115;SDS011;8162;47.104;15.432;2023-05-10T03:38:13;7.23;;;5.40;;
16115;SDS011;8162;47.104;15.432;2023-05-10T03:41:14;6.60;;;4.53;;
16115;SDS011;8162;47.104;15.432;2023-05-10T03:44:15;6.60;;;5.43;;
16115;SDS011;8162;47.104;15.432;2023-05-10T03:47:16;4.63;;;4.23;;
16115;SDS011;8162;47.104;15.432;2023-05-10T03:50:17;6.83;;;6.00;;
16115;SDS011;8162;47.104;15.432;2023-05-10T03:53:18;6.33;;;4.93;;
16115;SDS011;8162;47.104;15.432;2023-05-10T03:56:19;4.93;;;4.40;;
16115;SDS011;8162;47.104;15.432;2023-05-10T03:59:20;5.30;;;4.60;;
16115;SDS011;8162;47.104;15.432;2023-05-10T04:02:21;5.17;;;4.67;;
16115;SDS011;8162;47.104;15.432;2023-05-10T04:05:22;5.00;;;4.43;;
16115;SDS011;8162;47.104;15.432;2023-05-10T04:08:23;5.33;;;4.70;;
16115;SDS011;8162;47.104;15.432;2023-05-10T04:11:25;7.40;;;5.20;;
16115;SDS011;8162;47.104;15.432;2023-05-10T04:14:26;6.40;;;4.80;;
16115;SDS011;8162;47.104;15.432;2023-05-10T04:17:27;6.70;;;5.00;;
16115;SDS011;8162;47.104;15.432;2023-05-10T04:20:28;5.93;;;4.90;;
16115;SDS011;8162;47.104;15.432;2023-05-10T04:23:29;8.53;;;5.27;;
16115;SDS011;8162;47.104;15.432;2023-05-10T04:26:30;5.60;;;5.03;;
16115;SDS011;8162;47.104;15.432;2023-05-10T04:29:31;6.67;;;5.63;;
16115;SDS011;8162;47.104;15.432;2023-05-10T04:32:32;7.17;;;5.20;;
16115;SDS011;8162;47.104;15.432;2023-05-10T04:35:33;7.93;;;5.10;;
16115;SDS011;8162;47.104;15.432;2023-05-10T04:38:34;6.77;;;5.77;;
16115;SDS011;8162;47.104;15.432;2023-05-10T04:41:35;5.77;;;4.67;;
16115;SDS011;8162;47.104;15.432;2023-05-10T04:44:38;6.43;;;5.03;;
16115;SDS011;8162;47.104;15.432;2023-05-10T04:47:39;6.77;;;5.23;;
16115;SDS011;8162;47.104;15.432;2023-05-10T04:50:40;6.10;;;5.33;;
16115;SDS011;8162;47.104;15.432;2023-05-10T04:53:41;5.67;;;4.80;;
16115;SDS011;8162;47.104;15.432;2023-05-10T04:56:42;6.47;;;5.00;;
16115;SDS011;8162;47.104;15.432;2023-05-10T04:59:43;5.33;;;4.37;;
16115;SDS011;8162;47.104;15.432;2023-05-10T05:02:45;5.87;;;4.80;;
16115;SDS011;8162;47.104;15.432;2023-05-10T05:05:46;4.77;;;4.27;;
16115;SDS011;8162;47.104;15.432;2023-05-10T05:08:47;5.03;;;4.60;;
16115;SDS011;8162;47.104;15.432;2023-05-10T05:11:49;5.73;;;5.00;;
16115;SDS011;8162;47.104;15.432;2023-05-10T05:14:50;6.03;;;5.07;;
16115;SDS011;8162;47.104;15.432;2023-05-10T05:17:51;7.57;;;5.20;;
16115;SDS011;8162;47.104;15.432;2023-05-10T05:20:52;4.97;;;4.47;;
16115;SDS011;8162;47.104;15.432;2023-05-10T05:23:53;7.57;;;5.30;;
16115;SDS011;8162;47.104;15.432;2023-05-10T05:26:54;5.47;;;4.43;;
16115;SDS011;8162;47.104;15.432;2023-05-10T05:29:56;4.57;;;3.90;;
16115;SDS011;8162;47.104;15.432;2023-05-10T05:32:57;6.23;;;4.47;;
16115;SDS011;8162;47.104;15.432;2023-05-10T05:36:00;5.00;;;4.33;;
16115;SDS011;8162;47.104;15.432;2023-05-10T05:39:01;4.80;;;4.23;;
16115;SDS011;8162;47.104;15.432;2023-05-10T05:42:02;5.53;;;4.93;;
16115;SDS011;8162;47.104;15.432;2023-05-10T05:45:03;5.10;;;4.50;;
16115;SDS011;8162;47.104;15.432;2023-05-10T05:48:05;5.83;;;4.67;;
16115;SDS011;8162;47.104;15.432;2023-05-10T05:51:06;5.67;;;4.30;;
16115;SDS011;8162;47.104;15.432;2023-05-10T05:54:07;6.03;;;5.37;;
16115;SDS011;8162;47.104;15.432;2023-05-10T05:57:08;5.83;;;4.80;;
16115;SDS011;8162;47.104;15.432;2023-05-10T06:00:09;6.03;;;4.80;;
16115;SDS011;8162;47.104;15.432;2023-05-10T06:03:10;4.93;;;4.20;;
16115;SDS011;8162;47.104;15.432;2023-05-10T06:06:11;7.33;;;5.40;;
16115;SDS011;8162;47.104;15.432;2023-05-10T06:09:13;6.03;;;4.87;;
16115;SDS011;8162;47.104;15.432;2023-05-10T06:12:14;6.13;;;5.53;;
16115;SDS011;8162;47.104;15.432;2023-05-10T06:15:15;4.60;;;4.20;;
16115;SDS011;8162;47.104;15.432;2023-05-10T06:18:16;6.33;;;4.47;;
16115;SDS011;8162;47.104;15.432;2023-05-10T06:21:17;5.33;;;4.67;;
16115;SDS011;8162;47.104;15.432;2023-05-10T06:24:18;4.70;;;4.30;;
16115;SDS011;8162;47.104;15.432;2023-05-10T06:27:19;6.73;;;5.20;;
16115;SDS011;8162;47.104;15.432;2023-05-10T06:30:21;7.50;;;4.97;;
16115;SDS011;8162;47.104;15.432;2023-05-10T06:33:27;5.83;;;4.77;;
16115;SDS011;8162;47.104;15.432;2023-05-10T06:36:28;6.03;;;5.43;;
16115;SDS011;8162;47.104;15.432;2023-05-10T06:39:29;6.33;;;5.60;;
16115;SDS011;8162;47.104;15.432;2023-05-10T06:42:30;6.23;;;5.10;;
16115;SDS011;8162;47.104;15.432;2023-05-10T06:45:31;4.80;;;4.40;;
16115;SDS011;8162;47.104;15.432;2023-05-10T06:48:32;7.77;;;5.90;;
16115;SDS011;8162;47.104;15.432;2023-05-10T06:51:33;7.60;;;4.90;;
16115;SDS011;8162;47.104;15.432;2023-05-10T06:54:35;5.90;;;5.23;;
16115;SDS011;8162;47.104;15.432;2023-05-10T06:57:36;8.87;;;5.60;;
16115;SDS011;8162;47.104;15.432;2023-05-10T07:00:37;5.77;;;5.17;;
16115;SDS011;8162;47.104;15.432;2023-05-10T07:03:40;6.70;;;5.13;;
16115;SDS011;8162;47.104;15.432;2023-05-10T07:06:41;5.07;;;4.57;;
16115;SDS011;8162;47.104;15.432;2023-05-10T07:09:42;5.87;;;5.33;;
16115;SDS011;8162;47.104;15.432;2023-05-10T07:12:43;5.73;;;5.03;;
16115;SDS011;8162;47.104;15.432;2023-05-10T07:15:44;7.70;;;5.80;;
16115;SDS011;8162;47.104;15.432;2023-05-10T07:18:45;6.57;;;5.63;;
16115;SDS011;8162;47.104;15.432;2023-05-10T07:21:46;7.80;;;5.60;;
16115;SDS011;8162;47.104;15.432;2023-05-10T07:24:47;5.83;;;4.50;;
16115;SDS011;8162;47.104;15.432;2023-05-10T07:27:48;6.43;;;5.00;;
16115;SDS011;8162;47.104;15.432;2023-05-10T07:30:50;6.53;;;4.47;;
16115;SDS011;8162;47.104;15.432;2023-05-10T07:33:51;4.87;;;4.20;;
16115;SDS011;8162;47.104;15.432;2023-05-10T07:36:53;5.60;;;4.90;;
16115;SDS011;8162;47.104;15.432;2023-05-10T07:39:54;6.47;;;4.73;;
16115;SDS011;8162;47.104;15.432;2023-05-10T07:42:56;6.00;;;4.43;;
16115;SDS011;8162;47.104;15.432;2023-05-10T07:45:57;7.37;;;4.53;;
16115;SDS011;8162;47.104;15.432;2023-05-10T07:48:59;6.23;;;4.50;;
16115;SDS011;8162;47.104;15.432;2023-05-10T07:52:00;5.90;;;4.63;;
16115;SDS011;8162;47.104;15.432;2023-05-10T07:55:01;6.90;;;4.00;;
16115;SDS011;8162;47.104;15.432;2023-05-10T07:58:02;5.90;;;4.53;;
16115;SDS011;8162;47.104;15.432;2023-05-10T08:01:03;7.60;;;5.23;;
16115;SDS011;8162;47.104;15.432;2023-05-10T08:04:05;5.73;;;3.87;;
16115;SDS011;8162;47.104;15.432;2023-05-10T08:07:06;5.33;;;4.57;;
16115;SDS011;8162;47.104;15.432;2023-05-10T08:10:07;5.73;;;4.27;;
16115;SDS011;8162;47.104;15.432;2023-05-10T08:13:08;6.13;;;4.70;;
16115;SDS011;8162;47.104;15.432;2023-05-10T08:16:10;3.80;;;3.43;;
16115;SDS011;8162;47.104;15.432;2023-05-10T08:19:11;8.50;;;4.40;;
16115;SDS011;8162;47.104;15.432;2023-05-10T08:22:12;4.60;;;4.20;;
16115;SDS011;8162;47.104;15.432;2023-05-10T08:25:13;4.33;;;3.93;;
16115;SDS011;8162;47.104;15.432;2023-05-10T08:28:14;5.97;;;3.87;;
16115;SDS011;8162;47.104;15.432;2023-05-10T08:31:15;4.90;;;4.40;;
16115;SDS011;8162;47.104;15.432;2023-05-10T08:34:16;5.23;;;3.90;;
16115;SDS011;8162;47.104;15.432;2023-05-10T08:37:17;5.53;;;3.87;;
16115;SDS011;8162;47.104;15.432;2023-05-10T08:40:19;7.50;;;4.20;;
16115;SDS011;8162;47.104;15.432;2023-05-10T08:43:20;4.33;;;3.93;;
16115;SDS011;8162;47.104;15.432;2023-05-10T08:46:22;4.93;;;3.70;;
16115;SDS011;8162;47.104;15.432;2023-05-10T08:49:23;4.10;;;3.70;;
16115;SDS011;8162;47.104;15.432;2023-05-10T08:52:25;5.67;;;3.77;;
16115;SDS011;8162;47.104;15.432;2023-05-10T08:55:27;4.83;;;3.97;;
16115;SDS011;8162;47.104;15.432;2023-05-10T08:58:28;5.57;;;3.83;;
16115;SDS011;8162;47.104;15.432;2023-05-10T09:01:29;4.20;;;3.40;;
16115;SDS011;8162;47.104;15.432;2023-05-10T09:04:31;6.40;;;3.60;;
16115;SDS011;8162;47.104;15.432;2023-05-10T09:07:33;4.53;;;3.50;;
16115;SDS011;8162;47.104;15.432;2023-05-10T09:10:34;6.67;;;3.93;;
16115;SDS011;8162;47.104;15.432;2023-05-10T09:13:35;4.57;;;3.43;;
16115;SDS011;8162;47.104;15.432;2023-05-10T09:16:37;4.80;;;3.73;;
16115;SDS011;8162;47.104;15.432;2023-05-10T09:19:38;4.33;;;3.83;;
16115;SDS011;8162;47.104;15.432;2023-05-10T09:22:39;3.93;;;3.53;;
16115;SDS011;8162;47.104;15.432;2023-05-10T09:25:43;5.47;;;4.17;;
16115;SDS011;8162;47.104;15.432;2023-05-10T09:28:51;5.53;;;3.40;;
16115;SDS011;8162;47.104;15.432;2023-05-10T09:31:53;4.10;;;3.70;;
16115;SDS011;8162;47.104;15.432;2023-05-10T09:34:56;5.30;;;3.87;;
16115;SDS011;8162;47.104;15.432;2023-05-10T09:37:59;6.37;;;3.73;;
16115;SDS011;8162;47.104;15.432;2023-05-10T09:41:00;4.80;;;3.60;;
16115;SDS011;8162;47.104;15.432;2023-05-10T09:44:02;4.37;;;3.70;;
16115;SDS011;8162;47.104;15.432;2023-05-10T09:47:03;5.77;;;4.07;;
16115;SDS011;8162;47.104;15.432;2023-05-10T09:50:05;5.27;;;3.23;;
16115;SDS011;8162;47.104;15.432;2023-05-10T09:53:06;4.73;;;3.40;;
16115;SDS011;8162;47.104;15.432;2023-05-10T09:56:07;5.13;;;3.63;;
16115;SDS011;8162;47.104;15.432;2023-05-10T09:59:11;5.77;;;3.70;;
16115;SDS011;8162;47.104;15.432;2023-05-10T10:02:12;5.13;;;4.13;;
16115;SDS011;8162;47.104;15.432;2023-05-10T10:05:14;4.93;;;3.43;;
16115;SDS011;8162;47.104;15.432;2023-05-10T10:08:17;6.57;;;3.83;;
16115;SDS011;8162;47.104;15.432;2023-05-10T10:11:18;4.20;;;3.80;;
16115;SDS011;8162;47.104;15.432;2023-05-10T10:14:19;4.60;;;4.20;;
16115;SDS011;8162;47.104;15.432;2023-05-10T10:17:20;5.37;;;3.80;;
16115;SDS011;8162;47.104;15.432;2023-05-10T10:20:22;4.87;;;4.27;;
16115;SDS011;8162;47.104;15.432;2023-05-10T10:23:24;5.10;;;4.60;;
16115;SDS011;8162;47.104;15.432;2023-05-10T10:26:25;4.20;;;3.80;;
16115;SDS011;8162;47.104;15.432;2023-05-10T10:29:39;5.83;;;4.43;;
16115;SDS011;8162;47.104;15.432;2023-05-10T10:35:58;4.57;;;4.10;;
16115;SDS011;8162;47.104;15.432;2023-05-10T10:39:00;4.73;;;4.33;;
16115;SDS011;8162;47.104;15.432;2023-05-10T10:42:03;4.70;;;4.27;;
16115;SDS011;8162;47.104;15.432;2023-05-10T10:45:11;4.10;;;3.70;;
16115;SDS011;8162;47.104;15.432;2023-05-10T10:48:20;3.80;;;3.20;;
16115;SDS011;8162;47.104;15.432;2023-05-10T10:51:22;4.53;;;2.77;;
16115;SDS011;8162;47.104;15.432;2023-05-10T10:54:29;3.17;;;2.83;;
16115;SDS011;8162;47.104;15.432;2023-05-10T10:57:49;5.63;;;3.70;;
16115;SDS011;8162;47.104;15.432;2023-05-10T11:00:51;4.10;;;3.70;;
16115;SDS011;8162;47.104;15.432;2023-05-10T11:07:16;4.97;;;4.13;;
16115;SDS011;8162;47.104;15.432;2023-05-10T11:10:21;5.33;;;3.90;;
16115;SDS011;8162;47.104;15.432;2023-05-10T11:16:43;4.83;;;3.80;;
16115;SDS011;8162;47.104;15.432;2023-05-10T11:20:01;4.40;;;3.90;;
16115;SDS011;8162;47.104;15.432;2023-05-10T11:23:12;5.00;;;4.00;;
16115;SDS011;8162;47.104;15.432;2023-05-10T11:26:16;4.57;;;3.87;;
16115;SDS011;8162;47.104;15.432;2023-05-10T11:29:17;4.50;;;3.03;;
16115;SDS011;8162;47.104;15.432;2023-05-10T11:32:19;4.70;;;4.30;;
16115;SDS011;8162;47.104;15.432;2023-05-10T11:35:20;8.40;;;4.90;;
16115;SDS011;8162;47.104;15.432;2023-05-10T11:38:21;5.03;;;4.53;;
16115;SDS011;8162;47.104;15.432;2023-05-10T11:41:23;5.20;;;4.17;;
16115;SDS011;8162;47.104;15.432;2023-05-10T11:44:30;4.40;;;4.00;;
16115;SDS011;8162;47.104;15.432;2023-05-10T11:47:32;4.60;;;3.87;;
16115;SDS011;8162;47.104;15.432;2023-05-10T11:50:35;7.67;;;4.37;;
16115;SDS011;8162;47.104;15.432;2023-05-10T11:53:36;5.30;;;4.23;;
16115;SDS011;8162;47.104;15.432;2023-05-10T11:56:39;5.87;;;3.90;;
16115;SDS011;8162;47.104;15.432;2023-05-10T11:59:40;3.67;;;3.17;;
16115;SDS011;8162;47.104;15.432;2023-05-10T12:02:41;3.80;;;3.40;;
16115;SDS011;8162;47.104;15.432;2023-05-10T12:05:42;4.80;;;3.67;;
16115;SDS011;8162;47.104;15.432;2023-05-10T12:08:44;3.50;;;3.20;;
16115;SDS011;8162;47.104;15.432;2023-05-10T12:11:46;3.27;;;2.97;;
16115;SDS011;8162;47.104;15.432;2023-05-10T12:14:50;5.47;;;3.53;;
16115;SDS011;8162;47.104;15.432;2023-05-10T12:17:51;4.80;;;3.47;;
16115;SDS011;8162;47.104;15.432;2023-05-10T12:20:52;4.77;;;4.27;;
16115;SDS011;8162;47.104;15.432;2023-05-10T12:23:54;4.50;;;3.70;;
16115;SDS011;8162;47.104;15.432;2023-05-10T12:26:55;4.37;;;3.97;;
16115;SDS011;8162;47.104;15.432;2023-05-10T12:29:58;5.20;;;4.70;;
16115;SDS011;8162;47.104;15.432;2023-05-10T12:33:07;4.97;;;3.83;;
16115;SDS011;8162;47.104;15.432;2023-05-10T12:36:12;4.60;;;4.20;;
16115;SDS011;8162;47.104;15.432;2023-05-10T12:39:13;4.57;;;4.13;;
16115;SDS011;8162;47.104;15.432;2023-05-10T12:42:14;3.77;;;3.10;;
16115;SDS011;8162;47.104;15.432;2023-05-10T12:45:16;4.30;;;3.57;;
16115;SDS011;8162;47.104;15.432;2023-05-10T12:48:18;4.23;;;3.73;;
16115;SDS011;8162;47.104;15.432;2023-05-10T12:51:19;6.13;;;4.13;;
16115;SDS011;8162;47.104;15.432;2023-05-10T12:54:22;5.10;;;3.43;;
16115;SDS011;8162;47.104;15.432;2023-05-10T12:57:23;4.37;;;3.97;;
16115;SDS011;8162;47.104;15.432;2023-05-10T13:00:24;5.70;;;3.70;;
16115;SDS011;8162;47.104;15.432;2023-05-10T13:03:25;4.13;;;3.73;;
16115;SDS011;8162;47.104;15.432;2023-05-10T13:06:26;4.87;;;3.83;;
16115;SDS011;8162;47.104;15.432;2023-05-10T13:09:27;4.63;;;3.47;;
16115;SDS011;8162;47.104;15.432;2023-05-10T13:12:29;4.53;;;4.07;;
16115;SDS011;8162;47.104;15.432;2023-05-10T13:15:30;3.37;;;3.07;;
16115;SDS011;8162;47.104;15.432;2023-05-10T13:18:31;3.90;;;3.60;;
16115;SDS011;8162;47.104;15.432;2023-05-10T13:21:32;4.57;;;3.93;;
16115;SDS011;8162;47.104;15.432;2023-05-10T13:24:33;4.17;;;3.87;;
16115;SDS011;8162;47.104;15.432;2023-05-10T13:27:34;4.67;;;3.50;;
16115;SDS011;8162;47.104;15.432;2023-05-10T13:30:35;4.17;;;3.67;;
16115;SDS011;8162;47.104;15.432;2023-05-10T13:33:36;3.63;;;3.33;;
16115;SDS011;8162;47.104;15.432;2023-05-10T13:36:37;4.07;;;3.50;;
16115;SDS011;8162;47.104;15.432;2023-05-10T13:39:38;4.33;;;3.93;;
16115;SDS011;8162;47.104;15.432;2023-05-10T13:42:39;3.97;;;3.57;;
16115;SDS011;8162;47.104;15.432;2023-05-10T13:45:40;3.60;;;3.30;;
16115;SDS011;8162;47.104;15.432;2023-05-10T13:48:41;3.10;;;2.80;;
16115;SDS011;8162;47.104;15.432;2023-05-10T13:51:43;5.57;;;4.03;;
16115;SDS011;8162;47.104;15.432;2023-05-10T13:54:44;5.40;;;3.70;;
16115;SDS011;8162;47.104;15.432;2023-05-10T13:57:45;4.40;;;4.00;;
16115;SDS011;8162;47.104;15.432;2023-05-10T14:00:47;3.80;;;3.50;;
16115;SDS011;8162;47.104;15.432;2023-05-10T14:03:48;4.80;;;4.23;;
16115;SDS011;8162;47.104;15.432;2023-05-10T14:06:50;3.83;;;3.53;;
16115;SDS011;8162;47.104;15.432;2023-05-10T14:09:52;3.97;;;3.57;;
16115;SDS011;8162;47.104;15.432;2023-05-10T14:12:53;4.47;;;3.70;;
16115;SDS011;8162;47.104;15.432;2023-05-10T14:15:54;5.23;;;3.87;;
16115;SDS011;8162;47.104;15.432;2023-05-10T14:18:55;4.27;;;3.60;;
16115;SDS011;8162;47.104;15.432;2023-05-10T14:21:56;3.87;;;3.57;;
16115;SDS011;8162;47.104;15.432;2023-05-10T14:24:57;4.87;;;3.50;;
16115;SDS011;8162;47.104;15.432;2023-05-10T14:27:58;5.80;;;3.40;;
16115;SDS011;8162;47.104;15.432;2023-05-10T14:30:59;6.23;;;4.03;;
16115;SDS011;8162;47.104;15.432;2023-05-10T14:34:01;4.30;;;3.80;;
16115;SDS011;8162;47.104;15.432;2023-05-10T14:37:02;3.73;;;3.10;;
16115;SDS011;8162;47.104;15.432;2023-05-10T14:40:05;5.30;;;3.67;;
16115;SDS011;8162;47.104;15.432;2023-05-10T14:43:07;4.03;;;3.30;;
16115;SDS011;8162;47.104;15.432;2023-05-10T14:46:08;2.80;;;2.60;;
16115;SDS011;8162;47.104;15.432;2023-05-10T14:49:09;4.03;;;3.10;;
16115;SDS011;8162;47.104;15.432;2023-05-10T14:52:10;3.77;;;3.40;;
16115;SDS011;8162;47.104;15.432;2023-05-10T14:55:12;4.23;;;3.37;;
16115;SDS011;8162;47.104;15.432;2023-05-10T14:58:13;4.33;;;3.93;;
16115;SDS011;8162;47.104;15.432;2023-05-10T15:01:14;3.97;;;3.00;;
16115;SDS011;8162;47.104;15.432;2023-05-10T15:04:15;5.97;;;3.77;;
16115;SDS011;8162;47.104;15.432;2023-05-10T15:07:16;4.23;;;3.83;;
16115;SDS011;8162;47.104;15.432;2023-05-10T15:10:18;3.27;;;2.97;;
16115;SDS011;8162;47.104;15.432;2023-05-10T15:13:19;4.13;;;3.73;;
16115;SDS011;8162;47.104;15.432;2023-05-10T15:16:20;3.90;;;3.60;;
16115;SDS011;8162;47.104;15.432;2023-05-10T15:19:21;3.47;;;3.00;;
16115;SDS011;8162;47.104;15.432;2023-05-10T15:22:22;3.97;;;3.60;;
16115;SDS011;8162;47.104;15.432;2023-05-10T15:25:24;4.23;;;3.27;;
16115;SDS011;8162;47.104;15.432;2023-05-10T15:28:25;3.73;;;3.13;;
16115;SDS011;8162;47.104;15.432;2023-05-10T15:31:26;3.87;;;3.57;;
16115;SDS011;8162;47.104;15.432;2023-05-10T15:34:27;4.60;;;3.40;;
16115;SDS011;8162;47.104;15.432;2023-05-10T15:37:28;3.67;;;3.17;;
16115;SDS011;8162;47.104;15.432;2023-05-10T15:40:29;4.70;;;3.00;;
16115;SDS011;8162;47.104;15.432;2023-05-10T15:43:30;5.17;;;3.57;;
16115;SDS011;8162;47.104;15.432;2023-05-10T15:46:31;3.57;;;3.30;;
16115;SDS011;8162;47.104;15.432;2023-05-10T15:49:32;4.63;;;4.23;;
16115;SDS011;8162;47.104;15.432;2023-05-10T15:52:34;4.50;;;3.70;;
16115;SDS011;8162;47.104;15.432;2023-05-10T15:55:35;4.13;;;3.40;;
16115;SDS011;8162;47.104;15.432;2023-05-10T15:58:39;5.20;;;4.17;;
16115;SDS011;8162;47.104;15.432;2023-05-10T16:01:40;4.80;;;3.77;;
16115;SDS011;8162;47.104;15.432;2023-05-10T16:04:42;4.40;;;4.00;;
16115;SDS011;8162;47.104;15.432;2023-05-10T16:07:43;6.20;;;3.70;;
16115;SDS011;8162;47.104;15.432;2023-05-10T16:10:45;4.10;;;3.70;;
16115;SDS011;8162;47.104;15.432;2023-05-10T16:13:46;7.53;;;3.87;;
16115;SDS011;8162;47.104;15.432;2023-05-10T16:16:47;3.97;;;3.67;;
16115;SDS011;8162;47.104;15.432;2023-05-10T16:19:48;5.33;;;3.80;;
16115;SDS011;8162;47.104;15.432;2023-05-10T16:22:49;4.33;;;3.80;;
16115;SDS011;8162;47.104;15.432;2023-05-10T16:25:51;4.67;;;3.33;;
16115;SDS011;8162;47.104;15.432;2023-05-10T16:28:52;4.07;;;3.67;;
16115;SDS011;8162;47.104;15.432;2023-05-10T16:31:53;4.60;;;3.40;;
16115;SDS011;8162;47.104;15.432;2023-05-10T16:34:54;3.90;;;3.60;;
16115;SDS011;8162;47.104;15.432;2023-05-10T16:37:55;4.23;;;3.83;;
16115;SDS011;8162;47.104;15.432;2023-05-10T16:40:56;3.83;;;3.47;;
16115;SDS011;8162;47.104;15.432;2023-05-10T16:43:57;3.80;;;3.43;;
16115;SDS011;8162;47.104;15.432;2023-05-10T16:46:59;3.80;;;3.27;;
16115;SDS011;8162;47.104;15.432;2023-05-10T16:50:01;4.20;;;3.53;;
16115;SDS011;8162;47.104;15.432;2023-05-10T16:53:02;3.83;;;3.47;;
16115;SDS011;8162;47.104;15.432;2023-05-10T16:56:03;3.90;;;3.60;;
16115;SDS011;8162;47.104;15.432;2023-05-10T16:59:04;4.00;;;3.60;;
16115;SDS011;8162;47.104;15.432;2023-05-10T17:02:05;4.00;;;3.70;;
16115;SDS011;8162;47.104;15.432;2023-05-10T17:05:07;4.43;;;3.60;;
16115;SDS011;8162;47.104;15.432;2023-05-10T17:08:08;4.30;;;4.00;;
16115;SDS011;8162;47.104;15.432;2023-05-10T17:11:09;5.60;;;4.40;;
16115;SDS011;8162;47.104;15.432;2023-05-10T17:14:10;4.30;;;3.83;;
16115;SDS011;8162;47.104;15.432;2023-05-10T17:17:12;3.83;;;3.53;;
16115;SDS011;8162;47.104;15.432;2023-05-10T17:20:13;4.20;;;3.90;;
16115;SDS011;8162;47.104;15.432;2023-05-10T17:23:14;4.70;;;3.57;;
16115;SDS011;8162;47.104;15.432;2023-05-10T17:26:15;4.07;;;3.77;;
16115;SDS011;8162;47.104;15.432;2023-05-10T17:29:16;5.37;;;3.77;;
16115;SDS011;8162;47.104;15.432;2023-05-10T17:32:17;4.23;;;3.93;;
16115;SDS011;8162;47.104;15.432;2023-05-10T17:35:19;4.63;;;4.23;;
16115;SDS011;8162;47.104;15.432;2023-05-10T17:38:20;4.07;;;3.60;;
16115;SDS011;8162;47.104;15.432;2023-05-10T17:41:21;4.03;;;3.63;;
16115;SDS011;8162;47.104;15.432;2023-05-10T17:44:22;3.77;;;3.40;;
16115;SDS011;8162;47.104;15.432;2023-05-10T17:47:24;4.40;;;4.07;;
16115;SDS011;8162;47.104;15.432;2023-05-10T17:50:26;5.03;;;3.73;;
16115;SDS011;8162;47.104;15.432;2023-05-10T17:53:27;3.87;;;3.37;;
16115;SDS011;8162;47.104;15.432;2023-05-10T17:56:28;4.07;;;3.37;;
16115;SDS011;8162;47.104;15.432;2023-05-10T17:59:29;6.10;;;3.67;;
16115;SDS011;8162;47.104;15.432;2023-05-10T18:02:31;4.33;;;3.60;;
16115;SDS011;8162;47.104;15.432;2023-05-10T18:05:35;4.60;;;3.30;;
16115;SDS011;8162;47.104;15.432;2023-05-10T18:08:36;5.23;;;3.20;;
16115;SDS011;8162;47.104;15.432;2023-05-10T18:11:37;6.73;;;3.57;;
16115;SDS011;8162;47.104;15.432;2023-05-10T18:14:39;3.03;;;2.80;;
16115;SDS011;8162;47.104;15.432;2023-05-10T18:17:40;2.83;;;2.63;;
16115;SDS011;8162;47.104;15.432;2023-05-10T18:20:41;3.43;;;2.90;;
16115;SDS011;8162;47.104;15.432;2023-05-10T18:23:43;4.63;;;3.03;;
16115;SDS011;8162;47.104;15.432;2023-05-10T18:26:44;3.70;;;2.90;;
16115;SDS011;8162;47.104;15.432;2023-05-10T18:29:45;3.07;;;2.60;;
16115;SDS011;8162;47.104;15.432;2023-05-10T18:32:46;3.10;;;2.90;;
16115;SDS011;8162;47.104;15.432;2023-05-10T18:35:47;3.20;;;2.90;;